createdAt,value
2017-11-24T03:27:34.374Z,81.63
2017-11-24T03:28:14.950Z,81.92
2017-11-24T03:28:55.542Z,82.11
2017-11-24T03:29:36.123Z,81.82
2017-11-24T03:30:16.728Z,82.2
2017-11-24T03:30:57.299Z,82.11
2017-11-24T03:31:37.866Z,81.82
2017-11-24T03:32:18.439Z,81.92
2017-11-24T03:32:59.019Z,81.63
2017-11-24T03:33:39.603Z,81.92
2017-11-24T03:34:20.210Z,82.11
2017-11-24T03:35:00.772Z,81.82
2017-11-24T03:35:41.356Z,81.82
2017-11-24T03:36:21.940Z,82.3
2017-11-24T03:37:02.510Z,82.2
2017-11-24T03:37:43.076Z,82.59
2017-11-24T03:38:23.694Z,82.4
2017-11-24T03:39:04.269Z,82.4
2017-11-24T03:39:44.886Z,82.59
2017-11-24T03:40:25.495Z,82.59
2017-11-24T03:41:06.069Z,82.11
2017-11-24T03:41:46.675Z,82.11
2017-11-24T03:42:27.262Z,81.92
2017-11-24T03:43:07.871Z,82.68
2017-11-24T03:43:48.444Z,82.68
2017-11-24T03:44:29.022Z,82.49
2017-11-24T03:45:09.607Z,82.2
2017-11-24T03:45:50.167Z,82.59
2017-11-24T03:46:30.755Z,82.49
2017-11-24T03:47:11.309Z,82.87
2017-11-24T03:47:51.887Z,82.49
2017-11-24T03:48:32.468Z,82.49
2017-11-24T03:49:13.066Z,83.25
2017-11-24T03:49:53.643Z,83.25
2017-11-24T03:50:34.289Z,83.06
2017-11-24T03:51:14.809Z,83.06
2017-11-24T03:51:55.370Z,82.59
2017-11-24T03:52:35.986Z,83.25
2017-11-24T03:53:16.581Z,82.68
2017-11-24T03:53:57.138Z,82.78
2017-11-24T03:54:37.691Z,82.97
2017-11-24T03:55:18.280Z,83.16
2017-11-24T03:55:58.835Z,83.16
2017-11-24T03:56:39.420Z,83.25
2017-11-24T03:57:20.007Z,82.87
2017-11-24T03:58:00.581Z,82.97
2017-11-24T03:58:41.154Z,82.97
2017-11-24T03:59:21.724Z,83.12
2017-11-24T04:00:02.283Z,83.02
2017-11-24T04:00:42.876Z,83.73
2017-11-24T04:01:23.458Z,83.69
2017-11-24T04:02:04.079Z,83.69
2017-11-24T04:02:44.759Z,83.25
2017-11-24T04:03:25.328Z,83.21
2017-11-24T04:04:05.893Z,83.21
2017-11-24T04:04:46.512Z,83.31
2017-11-24T04:05:27.071Z,83.59
2017-11-24T04:06:07.637Z,83.69
2017-11-24T04:06:48.219Z,83.59
2017-11-24T04:07:28.792Z,83.16
2017-11-24T04:08:09.357Z,83.25
2017-11-24T04:08:49.935Z,82.92
2017-11-24T04:09:30.512Z,83.16
2017-11-24T04:10:11.087Z,83.4
2017-11-24T04:10:51.674Z,82.73
2017-11-24T04:11:32.294Z,83.4
2017-11-24T04:12:12.906Z,83.4
2017-11-24T04:12:53.470Z,83.21
2017-11-24T04:13:34.041Z,83.78
2017-11-24T04:14:14.619Z,83.78
2017-11-24T04:14:55.193Z,83.78
2017-11-24T04:15:35.806Z,83.69
2017-11-24T04:16:16.383Z,83.5
2017-11-24T04:16:56.957Z,83.78
2017-11-24T04:17:37.541Z,83.31
2017-11-24T04:18:18.120Z,83.31
2017-11-24T04:18:58.721Z,83.4
2017-11-24T04:19:39.308Z,83.78
2017-11-24T04:20:19.886Z,83.78
2017-11-24T04:21:01.379Z,83.59
2017-11-24T04:21:41.941Z,83.78
2017-11-24T04:22:22.495Z,83.78
2017-11-24T04:23:03.088Z,83.69
2017-11-24T04:23:43.675Z,83.78
2017-11-24T04:24:24.271Z,83.02
2017-11-24T04:25:04.862Z,83.4
2017-11-24T04:25:45.449Z,83.4
2017-11-24T04:26:26.014Z,83.4
2017-11-24T04:27:06.580Z,83.4
2017-11-24T04:27:47.159Z,83.44
2017-11-24T04:28:27.735Z,83.16
2017-11-24T04:29:08.306Z,83.12
2017-11-24T04:29:48.869Z,83.21
2017-11-24T04:30:29.446Z,83.5
2017-11-24T04:31:10.030Z,83.4
2017-11-24T04:31:50.584Z,82.73
2017-11-24T04:32:31.148Z,83.4
2017-11-24T04:33:11.709Z,83.21
2017-11-24T04:33:52.282Z,83.4
2017-11-24T04:34:32.852Z,83.21
2017-11-24T04:35:13.434Z,83.4
2017-11-24T05:19:27.065Z,83.59
2017-11-24T05:20:07.641Z,83.31
2017-11-24T05:20:48.210Z,83.59
2017-11-24T05:21:28.775Z,83.12
2017-11-24T05:22:09.405Z,83.12
2017-11-24T05:22:49.984Z,83.69
2017-11-24T05:23:30.581Z,83.78
2017-11-24T05:24:11.156Z,83.59
2017-11-24T05:24:51.753Z,83.5
2017-11-24T05:25:32.325Z,83.78
2017-11-24T05:26:12.928Z,83.5
2017-11-24T05:26:53.512Z,83.4
2017-11-24T05:27:34.085Z,83.5
2017-11-24T05:28:14.652Z,83.78
2017-11-24T05:28:55.233Z,83.59
2017-11-24T05:29:35.810Z,83.69
2017-11-24T05:30:16.381Z,83.59
2017-11-24T05:30:56.949Z,83.5
2017-11-24T05:31:37.512Z,83.69
2017-11-24T05:32:18.084Z,83.5
2017-11-24T05:32:58.659Z,83.5
2017-11-24T05:33:39.228Z,83.69
2017-11-24T05:34:19.851Z,83.69
2017-11-24T05:35:00.422Z,83.88
2017-11-24T05:35:41.008Z,83.69
2017-11-24T05:36:21.577Z,83.78
2017-11-24T05:37:02.145Z,83.88
2017-11-24T05:37:42.746Z,83.88
2017-11-24T05:38:23.313Z,83.88
2017-11-24T05:39:03.936Z,83.97
2017-11-24T05:39:44.540Z,83.78
2017-11-24T05:40:25.165Z,84.07
2017-11-24T05:41:05.765Z,84.16
2017-11-24T05:41:46.353Z,84.07
2017-11-24T05:42:26.914Z,84.07
2017-11-24T05:43:07.474Z,84.07
2017-11-24T05:43:48.037Z,84.16
2017-11-24T05:44:28.608Z,83.97
2017-11-24T05:45:09.178Z,83.97
2017-11-24T05:45:49.757Z,84.16
2017-11-24T05:46:30.348Z,84.16
2017-11-24T05:47:10.911Z,84.26
2017-11-24T05:47:51.482Z,84.07
2017-11-24T05:48:32.054Z,83.88
2017-11-24T05:49:12.617Z,84.07
2017-11-24T05:49:53.199Z,83.97
2017-11-24T05:50:33.773Z,84.07
2017-11-24T05:51:14.389Z,83.97
2017-11-24T05:51:54.975Z,84.16
2017-11-24T05:53:43.479Z,83.88
2017-11-24T05:54:24.077Z,83.97
2017-11-24T05:55:04.678Z,83.97
2017-11-24T05:55:45.272Z,83.97
2017-11-24T05:56:25.879Z,83.97
2017-11-24T05:57:06.423Z,83.78
2017-11-24T05:57:46.994Z,84.07
2017-11-24T05:58:27.575Z,83.78
2017-11-24T05:59:08.153Z,83.97
2017-11-24T05:59:48.736Z,84.07
2017-11-24T06:00:29.313Z,83.97
2017-11-24T06:01:09.897Z,83.97
2017-11-24T06:01:50.483Z,83.97
2017-11-24T06:02:31.067Z,83.88
2017-11-24T06:03:11.658Z,83.88
2017-11-24T06:03:52.250Z,84.07
2017-11-24T06:04:32.821Z,84.07
2017-11-24T06:05:13.426Z,84.07
2017-11-24T06:05:54.019Z,84.45
2017-11-24T06:06:34.593Z,84.26
2017-11-24T06:07:15.174Z,84.36
2017-11-24T06:07:55.763Z,84.26
2017-11-24T06:08:41.021Z,84.36
2017-11-24T06:09:21.889Z,84.26
2017-11-24T06:10:02.469Z,84.74
2017-11-24T06:10:43.055Z,84.74
2017-11-24T06:11:23.655Z,84.74
2017-11-24T06:12:04.268Z,84.26
2017-11-24T06:12:45.663Z,84.36
2017-11-24T06:13:26.356Z,84.26
2017-11-24T06:14:06.934Z,84.36
2017-11-24T06:14:47.506Z,84.55
2017-11-24T06:15:28.087Z,84.16
2017-11-24T06:16:08.833Z,84.36
2017-11-24T06:16:49.421Z,84.45
2017-11-24T06:17:30.015Z,84.45
2017-11-24T06:18:10.579Z,84.26
2017-11-24T06:18:51.160Z,84.92
2017-11-24T06:19:31.738Z,84.64
2017-11-24T06:20:12.330Z,84.74
2017-11-24T06:20:52.892Z,84.74
2017-11-24T06:21:33.461Z,84.83
2017-11-24T06:22:14.054Z,85.88
2017-11-24T06:22:54.632Z,86.36
2017-11-24T06:23:35.237Z,86.74
2017-11-24T06:24:15.807Z,87.02
2017-11-24T06:24:56.466Z,85.97
2017-11-24T06:25:37.058Z,86.11
2017-11-24T06:26:17.612Z,86.69
2017-11-24T06:26:58.199Z,86.4
2017-11-24T06:27:38.773Z,86.3
2017-11-24T06:28:19.357Z,87.07
2017-11-24T06:28:59.947Z,87.07
2017-11-24T06:29:40.565Z,86.69
2017-11-24T06:30:21.184Z,86.4
2017-11-24T06:31:01.740Z,84.97
2017-11-24T06:31:42.319Z,84.59
2017-11-24T06:32:22.927Z,83.39
2017-11-24T06:33:03.514Z,82.53
2017-11-24T06:33:44.105Z,83.39
2017-11-24T06:34:24.684Z,83.2
2017-11-24T06:35:05.254Z,83.58
2017-11-24T06:35:45.817Z,83.48
2017-11-24T06:36:26.381Z,82.91
2017-11-24T06:37:06.960Z,82.34
2017-11-24T06:37:47.570Z,83.01
2017-11-24T06:38:28.249Z,83.11
2017-11-24T06:39:08.781Z,83.11
2017-11-24T06:39:49.364Z,82.53
2017-11-24T06:40:29.932Z,81.96
2017-11-24T06:41:10.512Z,81.2
2017-11-24T06:41:51.099Z,81.77
2017-11-24T06:42:31.689Z,81.48
2017-11-24T06:43:12.295Z,81.38
2017-11-24T06:43:52.896Z,81.48
2017-11-24T06:44:33.480Z,81.33
2017-11-24T06:45:14.067Z,80.47
2017-11-24T06:45:54.629Z,80.76
2017-11-24T06:46:35.215Z,80.76
2017-11-24T06:47:15.809Z,80.76
2017-11-24T06:47:56.402Z,80.38
2017-11-24T06:48:37.011Z,79.43
2017-11-24T06:49:17.611Z,79.14
2017-11-24T06:49:58.215Z,78.85
2017-11-24T06:50:38.792Z,79.33
2017-11-24T06:51:19.351Z,79.71
2017-11-24T06:51:59.925Z,79.61
2017-11-24T06:52:40.506Z,79.23
2017-11-24T06:53:21.091Z,79.33
2017-11-24T06:54:01.655Z,79.43
2017-11-24T06:54:42.238Z,79.23
2017-11-24T06:55:22.790Z,79.04
2017-11-24T06:56:03.354Z,78.94
2017-11-24T06:56:43.932Z,78.91
2017-11-24T06:57:24.504Z,78.62
2017-11-24T06:58:05.105Z,79.48
2017-11-24T06:58:45.684Z,79.19
2017-11-24T06:59:26.237Z,79.28
2017-11-24T07:00:06.800Z,79.28
2017-11-24T07:00:47.373Z,79.38
2017-11-24T07:01:28.059Z,79.77
2017-11-24T07:02:08.652Z,79.96
2017-11-24T07:02:49.222Z,80.62
2017-11-24T07:03:29.792Z,80.2
2017-11-24T07:04:10.392Z,80.68
2017-11-24T07:04:50.972Z,80.49
2017-11-24T07:05:31.554Z,81.06
2017-11-24T07:06:12.120Z,80.39
2017-11-24T07:06:52.705Z,81.44
2017-11-24T07:07:33.283Z,81.35
2017-11-24T07:08:13.863Z,81.35
2017-11-24T07:08:54.438Z,81.44
2017-11-24T07:09:35.020Z,81.06
2017-11-24T07:10:15.608Z,81.44
2017-11-24T07:10:56.176Z,81.25
2017-11-24T07:11:36.803Z,81.82
2017-11-24T07:12:17.366Z,81.63
2017-11-24T07:12:57.943Z,81.92
2017-11-24T07:13:38.508Z,81.92
2017-11-24T07:14:19.595Z,81.92
2017-11-24T07:15:00.193Z,81.82
2017-11-24T07:15:40.805Z,82.2
2017-11-24T07:16:21.398Z,82.11
2017-11-24T07:17:01.992Z,81.82
2017-11-24T07:17:42.552Z,81.92
2017-11-24T07:18:23.182Z,81.82
2017-11-24T07:19:03.750Z,81.73
2017-11-24T07:19:44.301Z,81.73
2017-11-24T07:20:24.894Z,81.92
2017-11-24T07:21:05.479Z,81.82
2017-11-24T07:21:46.048Z,81.82
2017-11-24T07:22:26.612Z,81.78
2017-11-24T07:23:07.179Z,81.88
2017-11-24T07:23:47.773Z,81.82
2017-11-24T07:24:28.324Z,81.78
2017-11-24T07:25:08.914Z,81.82
2017-11-24T07:25:49.474Z,81.82
2017-11-24T07:26:30.052Z,81.92
2017-11-24T07:27:10.640Z,82.01
2017-11-24T07:27:51.202Z,81.97
2017-11-24T07:28:31.756Z,81.97
2017-11-24T07:29:12.322Z,82.17
2017-11-24T07:29:52.893Z,81.78
2017-11-24T07:30:33.456Z,81.97
2017-11-24T07:31:14.070Z,81.68
2017-11-24T07:31:54.652Z,81.97
2017-11-24T07:32:35.249Z,81.78
2017-11-24T07:33:15.820Z,81.82
2017-11-24T07:33:56.396Z,82.07
2017-11-24T07:34:36.951Z,81.97
2017-11-24T07:35:17.509Z,81.88
2017-11-24T07:35:58.115Z,81.78
2017-11-24T07:36:38.689Z,81.92
2017-11-24T07:37:19.258Z,81.88
2017-11-24T07:37:59.831Z,81.88
2017-11-24T07:38:40.399Z,81.73
2017-11-24T07:39:20.976Z,81.92
2017-11-24T07:40:01.557Z,81.73
2017-11-24T07:40:42.183Z,81.78
2017-11-24T07:41:22.740Z,81.21
2017-11-24T07:42:03.314Z,81.54
2017-11-24T07:42:43.883Z,81.4
2017-11-24T07:43:24.471Z,81.49
2017-11-24T07:44:05.038Z,81.54
2017-11-24T07:44:45.599Z,81.54
2017-11-24T07:45:26.183Z,81.49
2017-11-24T07:46:06.749Z,81.21
2017-11-24T07:46:47.356Z,81.97
2017-11-24T07:47:27.961Z,81.68
2017-11-24T07:48:08.518Z,82.11
2017-11-24T07:48:49.091Z,81.78
2017-11-24T07:49:29.644Z,81.78
2017-11-24T07:50:10.228Z,81.88
2017-11-24T07:50:50.790Z,81.92
2017-11-24T07:51:31.409Z,81.82
2017-11-24T07:52:11.968Z,82.01
2017-11-24T07:52:52.541Z,81.88
2017-11-24T07:53:33.139Z,81.25
2017-11-24T07:54:13.739Z,81.63
2017-11-24T07:54:54.282Z,81.73
2017-11-24T07:55:34.847Z,81.35
2017-11-24T07:56:15.418Z,81.35
2017-11-24T07:56:55.997Z,81.35
2017-11-24T07:57:36.626Z,81.44
2017-11-24T07:58:17.220Z,81.44
2017-11-24T07:58:57.800Z,82.17
2017-11-24T07:59:38.381Z,82.11
2017-11-24T08:00:18.961Z,81.92
2017-11-24T08:00:59.521Z,81.25
2017-11-24T08:01:40.107Z,81.25
2017-11-24T08:02:20.754Z,81.25
2017-11-24T08:03:01.315Z,81.25
2017-11-24T08:03:41.890Z,81.54
2017-11-24T08:04:22.461Z,81.35
2017-11-24T08:05:03.035Z,81.44
2017-11-24T08:05:43.603Z,81.15
2017-11-24T08:06:24.169Z,81.35
2017-11-24T08:07:04.799Z,81.44
2017-11-24T08:07:45.402Z,81.73
2017-11-24T08:08:26.009Z,81.73
2017-11-24T08:09:06.581Z,81.44
2017-11-24T08:09:47.230Z,81.44
2017-11-24T08:10:27.742Z,81.15
2017-11-24T08:11:08.334Z,81.15
2017-11-24T08:11:48.960Z,81.15
2017-11-24T08:12:29.536Z,81.35
2017-11-24T08:13:10.135Z,81.35
2017-11-24T08:13:50.723Z,81.15
2017-11-24T08:14:31.309Z,81.15
2017-11-24T08:15:11.887Z,80.96
2017-11-24T08:15:52.479Z,80.77
2017-11-24T08:16:33.038Z,81.15
2017-11-24T08:17:13.610Z,80.87
2017-11-24T08:17:54.207Z,80.87
2017-11-24T08:18:34.777Z,80.77
2017-11-24T08:19:15.369Z,80.96
2017-11-24T08:19:55.971Z,80.96
2017-11-24T08:20:36.555Z,80.96
2017-11-24T08:21:17.118Z,81.06
2017-11-24T08:21:57.702Z,81.15
2017-11-24T08:22:38.306Z,80.68
2017-11-24T08:23:18.915Z,80.49
2017-11-24T08:23:59.508Z,80.49
2017-11-24T08:24:40.088Z,80.68
2017-11-24T08:25:20.668Z,81.06
2017-11-24T08:26:01.229Z,80.96
2017-11-24T08:26:41.788Z,81.06
2017-11-24T08:27:22.423Z,81.06
2017-11-24T08:28:03.011Z,81.15
2017-11-24T08:28:43.623Z,80.77
2017-11-24T08:29:24.219Z,81.15
2017-11-24T08:30:04.838Z,80.58
2017-11-24T08:30:45.440Z,80.49
2017-11-24T08:31:26.051Z,80.58
2017-11-24T08:32:06.679Z,81.06
2017-11-24T08:32:47.296Z,80.96
2017-11-24T08:33:27.891Z,80.3
2017-11-24T08:34:08.513Z,80.68
2017-11-24T08:34:49.037Z,80.49
2017-11-24T08:35:29.624Z,80.11
2017-11-24T08:36:10.216Z,80.39
2017-11-24T08:36:50.814Z,80.01
2017-11-24T08:37:31.352Z,79.63
2017-11-24T08:38:11.924Z,80.11
2017-11-24T08:38:52.491Z,79.82
2017-11-24T08:39:33.060Z,80.2
2017-11-24T08:40:13.643Z,79.63
2017-11-24T08:40:54.229Z,79.72
2017-11-24T08:41:34.796Z,79.53
2017-11-24T08:42:15.407Z,79.63
2017-11-24T08:42:56.022Z,80.01
2017-11-24T08:43:36.606Z,80.3
2017-11-24T08:44:17.185Z,80.2
2017-11-24T08:44:57.789Z,80.58
2017-11-24T08:45:38.431Z,80.01
2017-11-24T08:46:18.997Z,79.82
2017-11-24T08:46:59.592Z,79.72
2017-11-24T08:47:40.169Z,79.91
2017-11-24T08:48:20.778Z,80.01
2017-11-24T08:49:01.349Z,79.82
2017-11-24T08:49:41.924Z,79.82
2017-11-24T08:50:22.505Z,80.49
2017-11-24T08:51:03.096Z,79.72
2017-11-24T08:51:43.663Z,79.82
2017-11-24T08:52:24.250Z,79.91
2017-11-24T08:53:04.832Z,79.82
2017-11-24T08:53:45.431Z,79.91
2017-11-24T08:54:26.008Z,79.91
2017-11-24T08:55:06.611Z,80.3
2017-11-24T08:55:47.207Z,80.58
2017-11-24T08:56:27.768Z,80.39
2017-11-24T08:57:08.328Z,80.49
2017-11-24T08:57:48.915Z,79.91
2017-11-24T08:58:29.494Z,79.63
2017-11-24T08:59:10.061Z,79.82
2017-11-24T08:59:50.645Z,79.82
2017-11-24T09:00:31.241Z,79.72
2017-11-24T09:01:11.826Z,79.82
2017-11-24T09:01:52.397Z,79.72
2017-11-24T09:02:32.987Z,79.91
2017-11-24T09:03:13.557Z,80.49
2017-11-24T09:03:54.194Z,80.49
2017-11-24T09:04:34.778Z,80.3
2017-11-24T09:05:15.351Z,79.63
2017-11-24T09:05:55.917Z,80.11
2017-11-24T09:06:36.492Z,79.63
2017-11-24T09:07:17.053Z,80.01
2017-11-24T09:07:57.631Z,79.63
2017-11-24T09:08:38.222Z,79.82
2017-11-24T09:09:18.816Z,79.82
2017-11-24T09:09:59.388Z,79.72
2017-11-24T09:10:39.971Z,79.91
2017-11-24T09:11:20.555Z,79.82
2017-11-24T09:12:01.135Z,79.63
2017-11-24T09:12:41.708Z,79.82
2017-11-24T09:13:22.309Z,80.11
2017-11-24T09:14:02.903Z,79.63
2017-11-24T09:14:43.517Z,79.44
2017-11-24T09:15:24.101Z,79.35
2017-11-24T09:16:04.753Z,79.15
2017-11-24T09:16:45.355Z,79.28
2017-11-24T09:17:25.908Z,79.28
2017-11-24T09:18:06.504Z,79.1
2017-11-24T09:18:47.130Z,79.19
2017-11-24T09:19:27.718Z,79.28
2017-11-24T09:20:08.328Z,79.38
2017-11-24T09:20:48.929Z,79.1
2017-11-24T09:21:29.489Z,79.57
2017-11-24T09:22:10.104Z,79.67
2017-11-24T09:22:50.772Z,79.19
2017-11-24T09:23:31.336Z,78.91
2017-11-24T09:24:11.881Z,77.89
2017-11-24T09:24:52.505Z,77.13
2017-11-24T09:25:33.077Z,76.21
2017-11-24T09:26:13.643Z,75.64
2017-11-24T09:26:54.203Z,74.98
2017-11-24T09:27:34.806Z,74.02
2017-11-24T09:28:15.361Z,74.02
2017-11-24T09:28:55.936Z,73.83
2017-11-24T09:29:36.526Z,74.02
2017-11-24T09:30:17.100Z,74.3
2017-11-24T09:30:57.697Z,74.02
2017-11-24T09:31:38.280Z,73.35
2017-11-24T09:32:18.857Z,73.25
2017-11-24T09:32:59.438Z,73.07
2017-11-24T09:33:40.049Z,72.91
2017-11-24T09:34:20.627Z,72.53
2017-11-24T09:35:01.204Z,72.58
2017-11-24T09:35:41.777Z,72.78
2017-11-24T09:36:22.357Z,73.07
2017-11-24T09:37:02.983Z,73.16
2017-11-24T09:37:43.560Z,72.87
2017-11-24T09:38:24.128Z,72.78
2017-11-24T09:39:04.692Z,73.07
2017-11-24T09:39:45.320Z,73.35
2017-11-24T09:40:25.903Z,73.44
2017-11-24T09:41:06.478Z,73.83
2017-11-24T09:41:47.084Z,73.63
2017-11-24T09:42:27.661Z,74.02
2017-11-24T09:43:08.246Z,73.83
2017-11-24T09:43:48.810Z,74.21
2017-11-24T09:44:29.377Z,74.3
2017-11-24T09:45:09.979Z,74.02
2017-11-24T09:45:50.554Z,74.4
2017-11-24T09:46:31.136Z,74.59
2017-11-24T09:47:11.718Z,74.49
2017-11-24T09:47:52.312Z,74.4
2017-11-24T09:48:32.893Z,74.69
2017-11-24T09:49:13.493Z,74.98
2017-11-24T09:49:54.064Z,74.93
2017-11-24T09:50:34.646Z,74.55
2017-11-24T09:51:15.245Z,75.03
2017-11-24T09:51:55.808Z,74.84
2017-11-24T09:52:36.373Z,75.32
2017-11-24T09:53:16.997Z,75.03
2017-11-24T09:53:57.550Z,74.93
2017-11-24T09:54:38.169Z,74.93
2017-11-24T09:55:18.746Z,74.93
2017-11-24T09:55:59.310Z,75.03
2017-11-24T09:56:39.977Z,75.32
2017-11-24T09:57:20.566Z,75.32
2017-11-24T09:58:01.135Z,75.32
2017-11-24T09:58:41.711Z,75.03
2017-11-24T09:59:22.295Z,75.42
2017-11-24T10:00:02.911Z,75.51
2017-11-24T10:00:43.472Z,75.32
2017-11-24T10:01:24.065Z,75.13
2017-11-24T10:02:04.654Z,74.93
2017-11-24T10:02:45.210Z,74.93
2017-11-24T10:03:25.815Z,74.84
2017-11-24T10:04:06.403Z,75.03
2017-11-24T10:04:46.998Z,74.74
2017-11-24T10:05:27.610Z,74.84
2017-11-24T10:06:08.281Z,74.93
2017-11-24T10:06:48.926Z,75.03
2017-11-24T10:07:29.509Z,75.03
2017-11-24T10:08:10.119Z,75.03
2017-11-24T10:08:50.737Z,74.93
2017-11-24T10:09:31.320Z,74.74
2017-11-24T10:10:11.873Z,75.03
2017-11-24T10:10:52.467Z,75.13
2017-11-24T10:11:33.059Z,75.03
2017-11-24T10:12:13.622Z,75.16
2017-11-24T10:12:54.236Z,74.98
2017-11-24T10:13:34.826Z,74.93
2017-11-24T10:14:15.418Z,75.26
2017-11-24T10:14:55.996Z,75.16
2017-11-24T10:15:36.567Z,75.07
2017-11-24T10:16:17.148Z,74.88
2017-11-24T10:16:57.723Z,74.46
2017-11-24T10:17:38.329Z,74.69
2017-11-24T10:18:18.931Z,74.98
2017-11-24T10:18:59.597Z,74.78
2017-11-24T10:19:40.184Z,75.16
2017-11-24T10:20:20.751Z,74.78
2017-11-24T10:21:01.332Z,74.69
2017-11-24T10:21:41.909Z,74.4
2017-11-24T10:22:22.526Z,74.49
2017-11-24T10:23:03.133Z,74.98
2017-11-24T10:23:43.703Z,74.98
2017-11-24T10:24:24.279Z,74.98
2017-11-24T10:25:04.864Z,75.07
2017-11-24T10:25:45.425Z,75.16
2017-11-24T10:26:26.002Z,75.07
2017-11-24T10:27:06.576Z,74.78
2017-11-24T10:27:47.163Z,74.49
2017-11-24T10:28:27.777Z,75.16
2017-11-24T10:29:08.348Z,74.98
2017-11-24T10:29:48.918Z,74.69
2017-11-24T10:30:29.493Z,74.69
2017-11-24T10:31:10.112Z,74.98
2017-11-24T10:31:50.684Z,74.88
2017-11-24T10:32:31.253Z,74.69
2017-11-24T10:33:11.849Z,74.59
2017-11-24T10:33:52.430Z,74.4
2017-11-24T10:34:32.977Z,74.69
2017-11-24T10:35:13.557Z,74.78
2017-11-24T10:35:54.155Z,74.4
2017-11-24T10:36:34.735Z,74.4
2017-11-24T10:37:15.352Z,74.05
2017-11-24T10:37:55.937Z,73.77
2017-11-24T10:38:36.553Z,73.58
2017-11-24T10:39:17.132Z,73.48
2017-11-24T10:39:57.709Z,73.1
2017-11-24T10:40:38.317Z,73.1
2017-11-24T10:41:18.892Z,72.62
2017-11-24T10:41:59.501Z,72.62
2017-11-24T10:42:40.097Z,72.72
2017-11-24T10:43:20.671Z,72.62
2017-11-24T10:44:01.247Z,72.81
2017-11-24T10:44:41.851Z,72.81
2017-11-24T10:45:22.443Z,72.91
2017-11-24T10:46:03.051Z,72.72
2017-11-24T10:46:43.630Z,72.91
2017-11-24T10:47:24.238Z,72.81
2017-11-24T10:48:04.809Z,72.91
2017-11-24T10:48:45.381Z,72.81
2017-11-24T10:49:25.968Z,72.72
2017-11-24T10:50:06.547Z,72.53
2017-11-24T10:50:47.178Z,72.43
2017-11-24T10:51:27.765Z,72.33
2017-11-24T10:52:08.335Z,72.05
2017-11-24T10:52:48.939Z,71.86
2017-11-24T10:53:29.510Z,71.67
2017-11-24T10:54:10.126Z,71.76
2017-11-24T10:54:50.727Z,71.47
2017-11-24T10:55:31.310Z,71.28
2017-11-24T10:56:11.892Z,71.28
2017-11-24T10:56:52.470Z,71.38
2017-11-24T10:57:33.109Z,71.51
2017-11-24T10:58:13.708Z,71.57
2017-11-24T10:58:54.280Z,71.67
2017-11-24T10:59:34.853Z,71.67
2017-11-24T11:00:15.460Z,71.32
2017-11-24T11:00:56.025Z,71.22
2017-11-24T11:01:36.598Z,71.19
2017-11-24T11:02:17.197Z,70.94
2017-11-24T11:02:57.876Z,71.22
2017-11-24T11:03:38.439Z,71.13
2017-11-24T11:04:19.043Z,71.03
2017-11-24T11:04:59.734Z,71.13
2017-11-24T11:05:40.313Z,71.51
2017-11-24T11:06:20.877Z,71.22
2017-11-24T11:07:01.484Z,71.61
2017-11-24T11:07:42.103Z,71.61
2017-11-24T11:08:22.690Z,71.86
2017-11-24T11:09:03.297Z,71.76
2017-11-24T11:09:43.867Z,71.61
2017-11-24T11:10:24.427Z,71.86
2017-11-24T11:11:04.996Z,71.89
2017-11-24T11:11:45.585Z,71.89
2017-11-24T11:12:26.143Z,71.89
2017-11-24T11:13:06.771Z,71.8
2017-11-24T11:13:47.331Z,71.86
2017-11-24T11:14:27.937Z,71.89
2017-11-24T11:15:08.516Z,72.24
2017-11-24T11:15:49.117Z,72.18
2017-11-24T11:16:29.684Z,71.86
2017-11-24T11:17:10.271Z,72.18
2017-11-24T11:17:50.841Z,72.28
2017-11-24T11:18:31.410Z,72.37
2017-11-24T11:19:11.992Z,72.66
2017-11-24T11:19:52.581Z,72.33
2017-11-24T11:20:33.149Z,72.37
2017-11-24T11:21:13.740Z,72.94
2017-11-24T11:21:54.323Z,72.62
2017-11-24T11:22:34.903Z,72.72
2017-11-24T11:23:15.464Z,72.81
2017-11-24T11:23:56.037Z,72.91
2017-11-24T11:24:36.620Z,72.85
2017-11-24T11:25:17.208Z,72.85
2017-11-24T11:25:57.805Z,72.62
2017-11-24T11:26:38.389Z,72.81
2017-11-24T11:27:18.984Z,72.81
2017-11-24T11:27:59.663Z,73
2017-11-24T11:28:40.299Z,72.43
2017-11-24T11:29:20.888Z,72.72
2017-11-24T11:30:01.480Z,72.75
2017-11-24T11:30:42.091Z,73
2017-11-24T11:31:22.665Z,73.23
2017-11-24T11:32:03.265Z,73.23
2017-11-24T11:32:43.881Z,73.19
2017-11-24T11:33:24.470Z,73.43
2017-11-24T11:34:05.078Z,73.29
2017-11-24T11:34:45.664Z,73.29
2017-11-24T11:35:26.244Z,73.23
2017-11-24T11:36:06.825Z,73.29
2017-11-24T11:36:47.417Z,73.43
2017-11-24T11:37:28.013Z,73.58
2017-11-24T11:38:08.590Z,73.71
2017-11-24T11:38:49.173Z,73.99
2017-11-24T11:39:29.764Z,73.61
2017-11-24T11:40:10.367Z,73.58
2017-11-24T11:40:50.954Z,73.33
2017-11-24T11:41:31.526Z,73.14
2017-11-24T11:42:12.152Z,73.04
2017-11-24T11:42:52.713Z,73.04
2017-11-24T11:43:33.327Z,72.94
2017-11-24T11:44:13.896Z,72.85
2017-11-24T11:44:54.479Z,73.29
2017-11-24T11:45:35.070Z,73.14
2017-11-24T11:46:15.670Z,73.43
2017-11-24T11:46:56.285Z,73.61
2017-11-24T11:47:36.845Z,73.61
2017-11-24T11:48:17.446Z,73.71
2017-11-24T11:48:58.057Z,73.61
2017-11-24T11:49:38.598Z,73.8
2017-11-24T11:50:19.182Z,73.33
2017-11-24T11:50:59.751Z,73.9
2017-11-24T11:51:40.322Z,73.52
2017-11-24T11:52:20.948Z,73.8
2017-11-24T11:53:01.535Z,73.8
2017-11-24T11:53:42.125Z,73.61
2017-11-24T11:54:22.715Z,73.99
2017-11-24T11:55:03.293Z,73.71
2017-11-24T11:55:43.878Z,73.8
2017-11-24T11:56:24.468Z,73.71
2017-11-24T11:57:05.041Z,73.43
2017-11-24T11:57:45.615Z,73.52
2017-11-24T11:58:26.191Z,73.61
2017-11-24T11:59:06.791Z,73.43
2017-11-24T11:59:47.377Z,73.52
2017-11-24T12:00:27.983Z,73.61
2017-11-24T12:01:08.611Z,73.52
2017-11-24T12:01:49.188Z,73.67
2017-11-24T12:02:29.765Z,73.8
2017-11-24T12:03:10.387Z,73.71
2017-11-24T12:03:50.940Z,73.61
2017-11-24T12:04:31.517Z,74.09
2017-11-24T12:05:12.117Z,74.19
2017-11-24T12:05:52.684Z,73.9
2017-11-24T12:06:33.271Z,73.99
2017-11-24T12:07:13.851Z,74.09
2017-11-24T12:07:54.473Z,74.24
2017-11-24T12:08:35.095Z,74.09
2017-11-24T12:09:15.666Z,73.71
2017-11-24T12:09:56.231Z,74.19
2017-11-24T12:10:36.831Z,73.99
2017-11-24T12:11:17.443Z,74.19
2017-11-24T12:11:58.020Z,74.44
2017-11-24T12:12:38.641Z,74.15
2017-11-24T12:13:19.226Z,74.19
2017-11-24T12:13:59.817Z,74.24
2017-11-24T12:14:40.447Z,74.19
2017-11-24T12:15:21.004Z,74.53
2017-11-24T12:16:01.604Z,74.28
2017-11-24T12:16:42.206Z,74.28
2017-11-24T12:17:22.809Z,74.28
2017-11-24T12:18:03.424Z,73.96
2017-11-24T12:18:44.020Z,74.85
2017-11-24T12:19:24.563Z,74.53
2017-11-24T12:20:05.138Z,74.05
2017-11-24T12:20:45.762Z,73.99
2017-11-24T12:21:26.360Z,74.44
2017-11-24T12:22:06.972Z,74.73
2017-11-24T12:22:47.560Z,74.09
2017-11-24T12:23:28.186Z,74.53
2017-11-24T12:24:08.757Z,74.85
2017-11-24T12:24:49.411Z,74.82
2017-11-24T12:25:29.978Z,74.85
2017-11-24T12:26:10.573Z,74.66
2017-11-24T12:26:51.159Z,74.57
2017-11-24T12:27:31.819Z,75.24
2017-11-24T12:28:12.390Z,74.85
2017-11-24T12:28:53.018Z,74.76
2017-11-24T12:29:33.597Z,74.76
2017-11-24T12:30:14.727Z,74.85
2017-11-24T12:30:58.333Z,74.66
2017-11-24T12:31:42.335Z,74.85
2017-11-24T12:32:22.899Z,74.57
2017-11-24T12:33:03.492Z,74.57
2017-11-24T12:33:44.098Z,74.66
2017-11-24T12:34:24.711Z,74.57
2017-11-24T12:35:05.308Z,75.05
2017-11-24T12:35:45.875Z,74.85
2017-11-24T12:36:26.492Z,75.05
2017-11-24T12:37:07.068Z,74.85
2017-11-24T12:37:47.645Z,74.73
2017-11-24T12:38:28.276Z,74.73
2017-11-24T12:39:08.843Z,74.95
2017-11-24T12:39:49.429Z,75.1
2017-11-24T12:40:30.020Z,75.2
2017-11-24T12:41:10.611Z,75.05
2017-11-24T12:41:51.203Z,75.01
2017-11-24T12:42:31.789Z,75.01
2017-11-24T12:43:12.402Z,75.39
2017-11-24T12:43:52.981Z,75.39
2017-11-24T12:44:33.560Z,75.39
2017-11-24T12:45:14.183Z,75.59
2017-11-24T12:45:54.772Z,75.1
2017-11-24T12:46:35.384Z,75.59
2017-11-24T12:47:15.989Z,75.3
2017-11-24T12:47:56.550Z,75.59
2017-11-24T12:48:37.141Z,75.87
2017-11-24T12:49:17.732Z,75.87
2017-11-24T12:49:58.355Z,75.49
2017-11-24T12:50:38.908Z,75.39
2017-11-24T12:51:19.545Z,75.59
2017-11-24T12:52:00.164Z,75.3
2017-11-24T12:52:40.743Z,75.49
2017-11-24T12:53:21.337Z,75.78
2017-11-24T12:54:01.910Z,75.68
2017-11-24T12:54:42.511Z,76.16
2017-11-24T12:55:23.094Z,75.96
2017-11-24T12:56:03.689Z,76.16
2017-11-24T12:56:44.269Z,76.35